createdAt,value
2022-12-05T00:00:56.780Z,37.05
2022-12-05T00:05:58.160Z,36.03
2022-12-05T00:10:59.582Z,40.63
2022-12-05T00:16:00.952Z,33.65
2022-12-05T00:21:02.409Z,33.00
2022-12-05T00:26:05.436Z,37.67
2022-12-05T00:31:12.080Z,35.53
2022-12-05T00:36:14.903Z,31.25
2022-12-05T00:41:18.404Z,30.70
2022-12-05T00:46:21.823Z,31.85
2022-12-05T00:51:28.251Z,35.35
2022-12-05T00:56:31.178Z,32.80
2022-12-05T01:01:34.193Z,35.40
2022-12-05T01:06:35.740Z,35.45
2022-12-05T01:11:41.254Z,40.45
2022-12-05T01:16:44.209Z,31.75
2022-12-05T01:21:48.211Z,32.25
2022-12-05T01:26:49.672Z,31.05
2022-12-05T01:31:51.217Z,30.58
2022-12-05T01:36:52.902Z,31.13
2022-12-05T01:41:54.353Z,32.22
2022-12-05T01:46:56.420Z,34.28
2022-12-05T01:52:05.954Z,38.28
2022-12-05T01:57:10.492Z,35.80
2022-12-05T02:02:12.408Z,35.03
2022-12-05T02:07:13.852Z,31.95
2022-12-05T02:12:15.527Z,34.13
2022-12-05T02:17:25.693Z,28.80
2022-12-05T02:22:39.025Z,33.33
2022-12-05T02:27:40.432Z,33.65
2022-12-05T02:32:47.952Z,33.83
2022-12-05T02:38:07.964Z,32.35
2022-12-05T02:43:44.791Z,34.53
2022-12-05T02:48:47.789Z,35.00
2022-12-05T02:53:50.610Z,36.40
2022-12-05T02:58:54.179Z,34.35
2022-12-05T03:03:56.328Z,37.03
2022-12-05T03:09:00.914Z,38.28
2022-12-05T03:14:03.619Z,36.53
2022-12-05T03:19:13.144Z,39.00
2022-12-05T03:24:14.847Z,42.47
2022-12-05T03:29:34.760Z,43.67
2022-12-05T03:34:41.889Z,39.05
2022-12-05T03:39:45.530Z,42.75
2022-12-05T03:44:47.015Z,35.75
2022-12-05T03:49:51.451Z,34.92
2022-12-05T03:54:55.155Z,40.47
2022-12-05T03:59:59.272Z,40.40
2022-12-05T04:05:00.768Z,37.50
2022-12-05T04:10:06.402Z,39.47
2022-12-05T04:15:13.864Z,35.83
2022-12-05T04:20:36.562Z,33.25
2022-12-05T04:25:50.227Z,34.03
2022-12-05T04:30:54.420Z,31.05
2022-12-05T04:36:01.885Z,29.23
2022-12-05T04:41:05.260Z,28.70
2022-12-05T04:46:09.361Z,28.80
2022-12-05T04:51:14.913Z,29.17
2022-12-05T04:56:18.116Z,26.45
2022-12-05T05:01:25.069Z,27.48
2022-12-05T05:06:29.320Z,27.50
2022-12-05T05:11:32.795Z,24.48
2022-12-05T05:16:35.955Z,23.05
2022-12-05T05:21:38.606Z,23.67
2022-12-05T05:26:43.013Z,21.08
2022-12-05T05:31:44.829Z,21.65
2022-12-05T05:36:50.975Z,18.83
2022-12-05T05:41:52.403Z,19.13
2022-12-05T05:46:54.604Z,19.25
2022-12-05T05:51:56.082Z,19.85
2022-12-05T05:56:57.456Z,17.17
2022-12-05T06:01:58.844Z,23.10
2022-12-05T06:07:00.237Z,18.08
2022-12-05T06:12:01.788Z,17.35
2022-12-05T06:17:03.203Z,18.25
2022-12-05T06:22:04.623Z,16.63
2022-12-05T06:27:06.219Z,16.77
2022-12-05T06:32:07.793Z,18.38
2022-12-05T06:37:09.245Z,15.98
2022-12-05T06:42:10.734Z,17.50
2022-12-05T06:47:12.182Z,19.63
2022-12-05T06:52:13.664Z,17.65
2022-12-05T06:57:15.119Z,20.35
2022-12-05T07:02:16.569Z,19.30
2022-12-05T07:07:18.014Z,17.50
2022-12-05T07:12:19.560Z,16.73
2022-12-05T07:17:21.364Z,19.02
2022-12-05T07:22:23.402Z,18.17
2022-12-05T07:27:27.713Z,18.23
2022-12-05T07:32:33.591Z,17.00
2022-12-05T07:37:34.989Z,15.73
2022-12-05T07:42:36.436Z,17.02
2022-12-05T07:47:37.906Z,21.05
2022-12-05T07:52:39.537Z,21.02
2022-12-05T07:57:41.029Z,20.65
2022-12-05T08:02:42.503Z,19.02
2022-12-05T08:07:44.139Z,18.95
2022-12-05T08:12:45.576Z,17.50
2022-12-05T08:17:47.000Z,16.58
2022-12-05T08:22:51.426Z,17.20
2022-12-05T08:27:52.903Z,16.08
2022-12-05T08:32:54.279Z,18.48
2022-12-05T08:37:55.796Z,17.05
2022-12-05T08:42:58.044Z,13.48
2022-12-05T08:47:59.529Z,15.57
2022-12-05T08:53:00.975Z,16.17
2022-12-05T08:58:02.369Z,15.63
2022-12-05T09:03:04.106Z,17.23
2022-12-05T09:08:05.634Z,17.70
2022-12-05T09:13:07.077Z,21.33
2022-12-05T09:18:08.450Z,17.60
2022-12-05T09:23:15.723Z,16.95
2022-12-05T09:28:17.469Z,22.50
2022-12-05T09:33:19.004Z,19.60
2022-12-05T09:38:20.442Z,18.90
2022-12-05T09:43:29.965Z,18.92
2022-12-05T09:48:31.578Z,17.63
2022-12-05T09:53:38.749Z,18.50
2022-12-05T09:58:44.897Z,16.45
2022-12-05T10:04:07.359Z,16.52
2022-12-05T10:09:10.034Z,17.02
2022-12-05T10:14:14.167Z,15.80
2022-12-05T10:19:22.522Z,17.63
2022-12-05T10:24:29.720Z,18.83
2022-12-05T10:29:45.345Z,17.42
2022-12-05T10:34:46.866Z,18.63
2022-12-05T10:39:50.931Z,15.70
2022-12-05T10:45:01.118Z,19.20
2022-12-05T10:50:04.842Z,21.00
2022-12-05T10:55:06.711Z,20.58
2022-12-05T11:00:15.451Z,21.55
2022-12-05T11:05:27.005Z,21.97
2022-12-05T11:10:35.811Z,18.85
2022-12-05T11:15:44.220Z,23.33
2022-12-05T11:20:47.141Z,21.00
2022-12-05T11:25:48.786Z,21.88
2022-12-05T11:30:53.015Z,19.98
2022-12-05T11:35:55.589Z,21.63
2022-12-05T11:40:56.986Z,20.77
2022-12-05T11:46:04.251Z,24.52
2022-12-05T11:51:20.794Z,18.13
2022-12-05T11:56:40.770Z,22.88
2022-12-05T12:02:00.936Z,23.80
2022-12-05T12:12:13.641Z,22.27
2022-12-05T12:17:28.824Z,20.80
2022-12-05T12:22:50.538Z,22.27
2022-12-05T12:27:51.974Z,19.30
2022-12-05T12:32:53.350Z,22.80
2022-12-05T12:37:54.702Z,22.13
2022-12-05T12:43:05.258Z,23.88
2022-12-05T12:48:16.650Z,20.50
2022-12-05T12:53:23.924Z,19.13
2022-12-05T12:58:47.029Z,21.27
2022-12-05T13:03:51.532Z,19.88
2022-12-05T13:08:55.363Z,21.15
2022-12-05T13:13:58.095Z,22.33
2022-12-05T13:19:00.168Z,20.10
2022-12-05T13:24:03.653Z,19.92
2022-12-05T13:29:05.477Z,16.13
2022-12-05T13:34:26.892Z,18.65
2022-12-05T13:39:47.100Z,16.08
2022-12-05T13:49:52.972Z,16.17
2022-12-05T13:55:00.864Z,16.60
2022-12-05T14:00:08.719Z,15.02
2022-12-05T14:05:19.378Z,16.80
2022-12-05T14:10:22.027Z,19.27
2022-12-05T14:15:31.436Z,17.45
2022-12-05T14:20:45.141Z,15.00
2022-12-05T14:26:08.712Z,13.27
2022-12-05T14:31:13.612Z,16.98
2022-12-05T14:36:17.085Z,17.02
2022-12-05T14:41:27.433Z,16.23
2022-12-05T14:46:30.421Z,13.98
2022-12-05T14:51:31.873Z,15.05
2022-12-05T14:56:39.598Z,14.95
2022-12-05T15:01:44.460Z,14.50
2022-12-05T15:07:06.706Z,18.58
2022-12-05T15:12:20.954Z,19.45
2022-12-05T15:17:25.612Z,20.67
2022-12-05T15:22:28.063Z,15.88
2022-12-05T15:27:29.467Z,13.45
2022-12-05T15:32:30.984Z,13.70
2022-12-05T15:37:34.941Z,13.00
2022-12-05T15:43:06.299Z,12.80
2022-12-05T15:48:07.672Z,12.50
2022-12-05T15:53:20.702Z,12.77
2022-12-05T15:58:22.137Z,13.45
2022-12-05T16:03:31.035Z,13.95
2022-12-05T16:08:40.806Z,10.45
2022-12-05T16:13:43.681Z,12.43
2022-12-05T16:18:49.283Z,13.13
2022-12-05T16:23:59.516Z,12.27
2022-12-05T16:29:01.726Z,12.68
2022-12-05T16:34:05.509Z,12.02
2022-12-05T16:39:18.993Z,14.43
2022-12-05T16:44:32.943Z,12.60
2022-12-05T16:49:37.036Z,10.45
2022-12-05T16:54:41.124Z,10.57
2022-12-05T16:59:43.735Z,11.18
2022-12-05T17:04:46.900Z,13.30
2022-12-05T17:09:48.713Z,15.77
2022-12-05T17:14:50.194Z,11.77
2022-12-05T17:19:51.608Z,12.00
2022-12-05T17:24:53.052Z,13.70
2022-12-05T17:29:54.525Z,13.27
2022-12-05T17:34:55.922Z,14.73
2022-12-05T17:39:57.604Z,13.85
2022-12-05T17:44:59.417Z,15.20
2022-12-05T17:50:01.368Z,13.13
2022-12-05T17:55:02.886Z,14.38
2022-12-05T18:00:04.544Z,15.23
2022-12-05T18:05:06.127Z,20.83
2022-12-05T18:15:30.520Z,16.20
2022-12-05T18:20:31.930Z,14.60
2022-12-05T18:25:33.355Z,14.98
2022-12-05T18:30:34.764Z,17.10
2022-12-05T18:35:40.665Z,17.08
2022-12-05T18:40:42.231Z,16.95
2022-12-05T18:45:43.726Z,14.77
2022-12-05T18:50:45.150Z,15.52
2022-12-05T18:56:05.436Z,13.15
2022-12-05T19:01:09.749Z,21.02
2022-12-05T19:06:15.435Z,14.82
2022-12-05T19:11:17.544Z,19.23
2022-12-05T19:16:19.229Z,15.82
2022-12-05T19:21:20.919Z,15.50
2022-12-05T19:26:23.032Z,15.48
2022-12-05T19:31:25.499Z,15.13
2022-12-05T19:36:31.988Z,18.30
2022-12-05T19:41:34.584Z,18.70
2022-12-05T19:46:36.459Z,16.10
2022-12-05T19:51:38.156Z,13.68
2022-12-05T19:56:39.824Z,17.55
2022-12-05T20:01:41.373Z,16.73
2022-12-05T20:06:43.909Z,16.40
2022-12-05T20:11:50.918Z,16.38
2022-12-05T20:16:55.772Z,12.60
2022-12-05T20:21:58.739Z,20.10
2022-12-05T20:27:01.657Z,13.32
2022-12-05T20:32:03.393Z,11.80
2022-12-05T20:37:06.821Z,15.88
2022-12-05T20:42:08.386Z,13.38
2022-12-05T20:47:09.840Z,13.60
2022-12-05T20:52:11.230Z,13.90
2022-12-05T20:57:12.666Z,12.73
2022-12-05T21:02:14.205Z,12.00
2022-12-05T21:07:15.711Z,14.15
2022-12-05T21:12:17.140Z,13.32
2022-12-05T21:17:18.560Z,12.40
2022-12-05T21:22:19.984Z,13.55
2022-12-05T21:27:21.414Z,13.35
2022-12-05T21:32:22.878Z,12.80
2022-12-05T21:37:24.357Z,12.30
2022-12-05T21:42:25.779Z,11.82
2022-12-05T21:47:30.249Z,11.23
2022-12-05T21:52:39.288Z,15.13
2022-12-05T21:57:40.794Z,8.90
2022-12-05T22:02:42.286Z,20.27
2022-12-05T22:07:43.815Z,58.33
2022-12-05T22:12:45.313Z,44.83
2022-12-05T22:17:46.723Z,17.95
2022-12-05T22:22:48.145Z,12.80
2022-12-05T22:28:08.212Z,13.07
2022-12-05T22:33:09.635Z,14.90
2022-12-05T22:38:11.107Z,12.52
2022-12-05T22:43:12.540Z,27.40
2022-12-05T22:48:14.025Z,37.83
2022-12-05T22:53:16.507Z,31.33
2022-12-05T22:58:18.029Z,12.63
2022-12-05T23:03:19.919Z,11.82
2022-12-05T23:08:21.557Z,11.07
2022-12-05T23:13:23.169Z,11.43
2022-12-05T23:18:25.607Z,8.95
2022-12-05T23:23:27.097Z,11.77
2022-12-05T23:28:28.654Z,12.75
2022-12-05T23:33:30.150Z,9.88
2022-12-05T23:38:31.649Z,11.77
2022-12-05T23:43:34.051Z,13.90
2022-12-05T23:48:35.600Z,14.35
2022-12-05T23:53:37.798Z,11.73
2022-12-05T23:58:39.671Z,14.25
